createdAt,value
2022-12-08T00:00:14.219Z,78.44
2022-12-08T00:03:11.994Z,78.19
2022-12-08T00:06:27.529Z,77.86
2022-12-08T00:20:22.798Z,76.00
2022-12-08T00:23:07.925Z,74.76
2022-12-08T00:26:41.421Z,73.82
2022-12-08T00:29:10.931Z,73.21
2022-12-08T00:31:47.083Z,73.34
2022-12-08T00:38:01.044Z,74.33
2022-12-08T00:40:27.477Z,74.08
2022-12-08T00:47:00.449Z,74.15
2022-12-08T00:49:35.671Z,74.33
2022-12-08T00:56:22.334Z,74.75
2022-12-08T00:59:07.747Z,74.85
2022-12-08T01:01:56.536Z,75.05
2022-12-08T01:04:23.989Z,75.22
2022-12-08T01:11:05.307Z,75.72
2022-12-08T01:13:31.396Z,75.74
2022-12-08T01:16:01.720Z,75.85
2022-12-08T01:18:56.279Z,76.07
2022-12-08T01:21:23.225Z,76.18
2022-12-08T01:24:22.424Z,76.32
2022-12-08T01:27:15.001Z,76.75
2022-12-08T01:29:52.596Z,76.69
2022-12-08T01:32:27.612Z,76.22
2022-12-08T01:35:17.995Z,76.67
2022-12-08T01:37:44.160Z,76.88
2022-12-08T01:40:10.209Z,76.87
2022-12-08T01:42:52.073Z,76.85
2022-12-08T01:53:26.293Z,76.92
2022-12-08T01:59:51.637Z,76.74
2022-12-08T02:00:00.540Z,76.53
2022-12-08T02:06:20.328Z,75.78
2022-12-08T02:23:13.017Z,73.81
2022-12-08T02:26:39.719Z,73.39
2022-12-08T02:29:24.404Z,73.17
2022-12-08T02:32:59.024Z,72.52
2022-12-08T02:36:23.919Z,72.20
2022-12-08T02:39:45.547Z,71.31
2022-12-08T02:45:56.245Z,70.62
2022-12-08T02:48:22.497Z,69.75
2022-12-08T02:50:48.438Z,69.25
2022-12-08T02:55:48.155Z,68.50
2022-12-08T02:58:28.273Z,67.90
2022-12-08T03:01:33.081Z,68.04
2022-12-08T03:04:15.080Z,67.94
2022-12-08T03:07:53.015Z,67.61
2022-12-08T03:11:14.057Z,67.78
2022-12-08T03:14:01.872Z,66.64
2022-12-08T03:16:31.445Z,66.91
2022-12-08T03:19:21.585Z,66.62
2022-12-08T03:25:20.167Z,66.62
2022-12-08T03:27:46.181Z,66.41
2022-12-08T03:30:12.494Z,66.34
2022-12-08T03:40:09.243Z,65.96
2022-12-08T03:46:48.571Z,65.74
2022-12-08T03:53:52.516Z,65.15
2022-12-08T03:56:23.270Z,65.11
2022-12-08T03:58:53.260Z,65.01
2022-12-08T04:01:39.806Z,65.46
2022-12-08T04:04:23.220Z,66.29
2022-12-08T04:07:02.523Z,67.52
2022-12-08T04:09:29.504Z,68.28
2022-12-08T04:12:07.249Z,68.78
2022-12-08T04:18:34.169Z,69.57
2022-12-08T04:30:47.538Z,71.05
2022-12-08T04:40:18.321Z,72.65
2022-12-08T04:43:05.145Z,73.12
2022-12-08T04:50:17.668Z,73.92
2022-12-08T04:52:50.729Z,74.11
2022-12-08T04:55:16.990Z,74.60
2022-12-08T04:57:43.232Z,74.82
2022-12-08T05:00:10.422Z,75.19
2022-12-08T05:02:39.250Z,75.37
2022-12-08T05:05:05.835Z,75.67
2022-12-08T05:08:26.093Z,75.51
2022-12-08T05:15:05.584Z,75.13
2022-12-08T05:17:38.049Z,75.33
2022-12-08T05:20:13.774Z,75.32
2022-12-08T05:22:40.684Z,75.01
2022-12-08T05:26:03.794Z,75.16
2022-12-08T05:28:42.721Z,75.25
2022-12-08T05:31:38.380Z,75.56
2022-12-08T05:37:21.783Z,75.95
2022-12-08T05:40:51.414Z,76.12
2022-12-08T05:44:08.038Z,76.44
2022-12-08T05:46:50.924Z,76.51
2022-12-08T05:49:42.326Z,76.00
2022-12-08T05:57:16.833Z,76.66
2022-12-08T05:59:42.973Z,77.10
2022-12-08T06:02:18.446Z,77.52
2022-12-08T06:04:59.042Z,77.15
2022-12-08T06:07:48.663Z,77.81
2022-12-08T06:10:15.310Z,77.98
2022-12-08T06:18:08.452Z,78.12
2022-12-08T06:20:40.835Z,78.13
2022-12-08T06:23:06.740Z,77.99
2022-12-08T06:30:00.658Z,76.46
2022-12-08T06:32:47.404Z,75.63
2022-12-08T06:38:09.283Z,73.69
2022-12-08T06:45:09.467Z,72.62
2022-12-08T06:47:35.841Z,71.12
2022-12-08T06:50:22.892Z,70.45
2022-12-08T06:53:31.431Z,70.04
2022-12-08T06:57:23.723Z,69.04
2022-12-08T07:00:19.614Z,68.28
2022-12-08T07:03:47.211Z,68.32
2022-12-08T07:06:41.506Z,67.09
2022-12-08T07:09:20.025Z,67.03
2022-12-08T07:12:02.907Z,66.60
2022-12-08T07:14:29.402Z,66.48
2022-12-08T07:17:36.858Z,65.75
2022-12-08T07:28:53.555Z,69.50
2022-12-08T07:31:22.888Z,70.05
2022-12-08T07:33:50.729Z,70.21
2022-12-08T07:36:47.899Z,70.54
2022-12-08T07:39:41.530Z,71.17
2022-12-08T07:42:07.618Z,71.39
2022-12-08T07:49:01.196Z,71.20
2022-12-08T07:52:20.057Z,70.99
2022-12-08T07:54:52.332Z,70.68
2022-12-08T07:57:30.212Z,70.34
2022-12-08T08:00:04.965Z,70.08
2022-12-08T08:02:48.490Z,69.56
2022-12-08T08:05:20.757Z,69.12
2022-12-08T08:07:47.732Z,68.60
2022-12-08T08:10:22.809Z,68.34
2022-12-08T08:13:14.214Z,67.73
2022-12-08T08:15:44.006Z,67.52
2022-12-08T08:18:10.262Z,67.03
2022-12-08T08:20:53.669Z,66.41
2022-12-08T08:23:22.577Z,66.19
2022-12-08T08:25:51.585Z,66.06
2022-12-08T08:28:22.768Z,65.80
2022-12-08T08:30:48.896Z,65.15
2022-12-08T08:33:25.508Z,66.35
2022-12-08T08:35:51.567Z,66.39
2022-12-08T08:38:28.795Z,65.87
2022-12-08T08:40:55.242Z,65.94
2022-12-08T08:43:36.233Z,65.72
2022-12-08T08:46:06.102Z,64.74
2022-12-08T08:48:32.480Z,64.47
2022-12-08T08:51:07.383Z,64.20
2022-12-08T08:53:33.574Z,64.63
2022-12-08T08:56:02.705Z,65.19
2022-12-08T08:58:29.368Z,65.41
2022-12-08T09:00:55.841Z,65.28
2022-12-08T09:03:21.987Z,65.29
2022-12-08T09:05:48.203Z,65.38
2022-12-08T09:08:14.627Z,65.92
2022-12-08T09:10:40.703Z,65.73
2022-12-08T09:13:06.904Z,65.64
2022-12-08T09:15:33.001Z,65.36
2022-12-08T09:18:02.126Z,65.39
2022-12-08T09:20:28.864Z,65.63
2022-12-08T09:22:54.922Z,65.85
2022-12-08T09:25:29.834Z,65.66
2022-12-08T09:27:56.241Z,65.43
2022-12-08T09:30:25.394Z,65.34
2022-12-08T09:33:21.376Z,64.81
2022-12-08T09:35:47.622Z,64.89
2022-12-08T09:38:16.704Z,65.22
2022-12-08T09:40:58.650Z,65.43
2022-12-08T09:43:46.559Z,66.91
2022-12-08T09:46:17.858Z,67.90
2022-12-08T09:49:09.277Z,68.57
2022-12-08T09:51:45.780Z,69.13
2022-12-08T09:54:22.126Z,69.27
2022-12-08T09:56:56.914Z,69.47
2022-12-08T09:59:43.282Z,69.89
2022-12-08T10:02:22.808Z,70.03
2022-12-08T10:08:59.594Z,70.64
2022-12-08T10:11:44.642Z,70.84
2022-12-08T10:14:33.006Z,70.92
2022-12-08T10:17:13.210Z,70.83
2022-12-08T10:19:41.844Z,70.98
2022-12-08T10:22:23.964Z,71.08
2022-12-08T10:25:12.296Z,71.50
2022-12-08T10:27:56.596Z,71.58
2022-12-08T10:30:38.996Z,71.31
2022-12-08T10:33:13.840Z,71.99
2022-12-08T10:35:47.238Z,71.89
2022-12-08T10:38:34.398Z,71.95
2022-12-08T10:41:01.178Z,72.16
2022-12-08T10:43:27.544Z,72.00
2022-12-08T10:45:54.174Z,72.13
2022-12-08T10:48:31.050Z,72.13
2022-12-08T10:51:01.072Z,72.24
2022-12-08T10:53:53.241Z,72.03
2022-12-08T10:56:24.657Z,72.03
2022-12-08T10:59:05.885Z,72.20
2022-12-08T11:01:55.730Z,72.04
2022-12-08T11:08:07.815Z,71.84
2022-12-08T11:10:43.986Z,71.90
2022-12-08T11:13:22.062Z,72.03
2022-12-08T11:15:52.432Z,71.74
2022-12-08T11:18:30.607Z,71.49
2022-12-08T11:21:07.248Z,70.72
2022-12-08T11:23:36.715Z,70.53
2022-12-08T11:26:31.145Z,70.88
2022-12-08T11:29:35.360Z,71.41
2022-12-08T11:32:12.767Z,71.60
2022-12-08T11:35:10.159Z,71.70
2022-12-08T11:37:41.806Z,71.63
2022-12-08T11:40:28.058Z,71.91
2022-12-08T11:43:22.966Z,71.66
2022-12-08T11:46:08.842Z,71.46
2022-12-08T11:49:06.900Z,71.26
2022-12-08T11:52:17.236Z,71.26
2022-12-08T11:55:33.767Z,70.88
2022-12-08T11:58:38.867Z,70.71
2022-12-08T12:01:05.106Z,70.84
2022-12-08T12:03:40.248Z,70.80
2022-12-08T12:12:37.983Z,71.07
2022-12-08T12:15:49.456Z,71.09
2022-12-08T12:21:40.249Z,71.07
2022-12-08T12:24:49.988Z,70.99
2022-12-08T12:27:50.566Z,71.00
2022-12-08T12:30:30.291Z,70.94
2022-12-08T12:33:09.270Z,70.97
2022-12-08T12:35:43.291Z,71.01
2022-12-08T12:42:05.261Z,70.56
2022-12-08T12:44:40.023Z,70.60
2022-12-08T12:47:12.192Z,70.65
2022-12-08T12:49:38.748Z,70.66
2022-12-08T12:58:56.563Z,71.24
2022-12-08T13:01:26.407Z,71.19
2022-12-08T13:04:19.638Z,71.06
2022-12-08T13:07:39.143Z,71.30
2022-12-08T13:14:06.105Z,71.57
2022-12-08T13:16:47.433Z,71.44
2022-12-08T13:19:15.807Z,71.64
2022-12-08T13:21:50.270Z,71.68
2022-12-08T13:24:34.692Z,71.60
2022-12-08T13:27:04.304Z,71.62
2022-12-08T13:29:31.946Z,71.53
2022-12-08T13:31:59.591Z,71.39
2022-12-08T13:34:57.707Z,71.29
2022-12-08T13:37:53.870Z,71.57
2022-12-08T13:40:29.891Z,71.71
2022-12-08T13:43:32.136Z,71.47
2022-12-08T13:59:30.823Z,71.13
2022-12-08T14:02:28.615Z,71.18
2022-12-08T14:05:18.024Z,71.22
2022-12-08T14:07:47.661Z,71.24
2022-12-08T14:10:21.317Z,71.34
2022-12-08T14:12:54.899Z,71.35
2022-12-08T14:15:21.819Z,71.25
2022-12-08T14:17:56.089Z,71.01
2022-12-08T14:20:26.792Z,71.13
2022-12-08T14:22:53.201Z,71.42
2022-12-08T14:25:20.736Z,71.43
2022-12-08T14:27:47.957Z,71.66
2022-12-08T14:30:14.234Z,72.06
2022-12-08T14:32:55.124Z,71.90
2022-12-08T14:35:23.801Z,71.77
2022-12-08T14:37:53.943Z,72.09
2022-12-08T14:40:28.088Z,72.03
2022-12-08T14:43:22.170Z,72.19
2022-12-08T14:48:37.569Z,72.26
2022-12-08T14:59:10.784Z,72.64
2022-12-08T15:07:00.716Z,72.93
2022-12-08T15:13:47.271Z,72.65
2022-12-08T15:16:36.884Z,72.68
2022-12-08T15:19:27.423Z,72.69
2022-12-08T15:21:59.382Z,72.82
2022-12-08T15:24:31.244Z,72.69
2022-12-08T15:30:33.864Z,73.13
2022-12-08T15:37:15.104Z,73.47
2022-12-08T15:39:41.600Z,73.86
2022-12-08T15:42:12.092Z,74.13
2022-12-08T15:44:38.426Z,74.00
2022-12-08T15:59:20.125Z,75.56
2022-12-08T16:01:53.226Z,76.01
2022-12-08T16:12:05.433Z,77.02
2022-12-08T16:16:00.375Z,77.43
2022-12-08T16:19:37.714Z,77.54
2022-12-08T16:23:07.959Z,77.73
2022-12-08T16:25:36.367Z,77.56
2022-12-08T16:28:45.390Z,77.51
2022-12-08T16:30:58.950Z,77.50
2022-12-08T16:33:25.456Z,77.47
2022-12-08T16:35:56.989Z,78.07
2022-12-08T16:38:35.070Z,78.22
2022-12-08T16:41:22.344Z,77.50
2022-12-08T16:43:53.636Z,77.60
2022-12-08T16:46:28.882Z,78.04
2022-12-08T16:48:58.246Z,77.99
2022-12-08T16:51:27.031Z,78.06
2022-12-08T16:54:15.198Z,77.99
2022-12-08T17:00:52.993Z,78.43
2022-12-08T17:03:20.169Z,78.21
2022-12-08T17:05:47.201Z,78.36
2022-12-08T17:08:13.548Z,78.66
2022-12-08T17:10:40.242Z,78.86
2022-12-08T17:13:06.352Z,79.24
2022-12-08T17:15:32.485Z,79.11
2022-12-08T17:17:58.507Z,78.75
2022-12-08T17:20:27.315Z,78.37
2022-12-08T17:22:55.773Z,78.10
2022-12-08T17:25:21.794Z,78.04
2022-12-08T17:27:47.760Z,78.09
2022-12-08T17:30:15.080Z,77.76
2022-12-08T17:32:42.121Z,77.72
2022-12-08T17:35:08.895Z,77.85
2022-12-08T17:37:35.185Z,77.83
2022-12-08T17:40:01.502Z,77.60
2022-12-08T17:42:27.721Z,77.94
2022-12-08T17:44:54.022Z,77.64
2022-12-08T17:47:20.208Z,77.87
2022-12-08T17:49:46.206Z,77.74
2022-12-08T17:52:12.249Z,77.71
2022-12-08T17:54:38.508Z,77.68
2022-12-08T17:57:04.884Z,77.90
2022-12-08T17:59:32.039Z,77.96
2022-12-08T18:01:58.901Z,77.68
2022-12-08T18:04:27.050Z,77.76
2022-12-08T18:06:54.265Z,77.74
2022-12-08T18:09:20.906Z,77.85
2022-12-08T18:11:47.081Z,77.88
2022-12-08T18:14:13.602Z,77.62
2022-12-08T18:16:42.950Z,77.64
2022-12-08T18:19:11.012Z,77.86
2022-12-08T18:21:37.496Z,77.73
2022-12-08T18:24:04.265Z,77.97
2022-12-08T18:26:30.351Z,77.80
2022-12-08T18:28:57.196Z,78.10
2022-12-08T18:31:23.708Z,78.19
2022-12-08T18:33:51.350Z,78.17
2022-12-08T18:36:23.276Z,77.74
2022-12-08T18:38:50.422Z,77.54
2022-12-08T18:41:20.368Z,77.60
2022-12-08T18:43:46.453Z,77.72
2022-12-08T18:46:13.756Z,77.62
2022-12-08T18:48:47.663Z,77.87
2022-12-08T18:51:19.324Z,77.71
2022-12-08T18:53:45.915Z,77.56
2022-12-08T18:56:30.143Z,77.55
2022-12-08T18:59:03.241Z,77.58
2022-12-08T19:01:35.407Z,77.39
2022-12-08T19:04:27.391Z,77.50
2022-12-08T19:06:50.511Z,77.52
2022-12-08T19:09:16.709Z,77.38
2022-12-08T19:11:42.662Z,77.44
2022-12-08T19:14:10.023Z,77.56
2022-12-08T19:16:36.447Z,77.48
2022-12-08T19:19:03.825Z,77.30
2022-12-08T19:24:44.174Z,77.48
2022-12-08T19:27:13.480Z,77.35
2022-12-08T19:29:42.703Z,77.18
2022-12-08T19:32:12.071Z,77.30
2022-12-08T19:34:38.487Z,77.06
2022-12-08T19:37:06.070Z,77.35
2022-12-08T19:39:50.354Z,77.46
2022-12-08T19:42:40.370Z,77.51
2022-12-08T19:45:14.499Z,77.50
2022-12-08T19:47:42.112Z,77.67
2022-12-08T19:50:28.759Z,77.61
2022-12-08T19:52:55.580Z,77.55
2022-12-08T19:55:23.445Z,77.28
2022-12-08T19:57:54.174Z,77.02
2022-12-08T20:00:20.741Z,77.75
2022-12-08T20:02:51.938Z,77.66
2022-12-08T20:05:21.120Z,77.39
2022-12-08T20:11:28.756Z,77.66
2022-12-08T20:13:55.548Z,77.74
2022-12-08T20:16:23.313Z,77.71
2022-12-08T20:18:49.788Z,77.91
2022-12-08T20:21:16.397Z,77.79
2022-12-08T20:23:42.657Z,77.66
2022-12-08T20:26:11.875Z,77.46
2022-12-08T20:28:37.928Z,77.44
2022-12-08T20:31:04.564Z,77.76
2022-12-08T20:33:30.933Z,77.82
2022-12-08T20:36:03.450Z,77.84
2022-12-08T20:38:30.197Z,77.63
2022-12-08T20:40:57.725Z,77.60
2022-12-08T20:43:25.015Z,77.50
2022-12-08T20:45:51.053Z,77.38
2022-12-08T20:48:17.193Z,77.52
2022-12-08T20:50:43.448Z,77.40
2022-12-08T20:53:09.531Z,77.40
2022-12-08T20:55:35.737Z,77.53
2022-12-08T20:58:01.961Z,77.61
2022-12-08T21:00:28.196Z,77.55
2022-12-08T21:02:56.724Z,77.61
2022-12-08T21:05:23.499Z,77.67
2022-12-08T21:07:49.724Z,77.55
2022-12-08T21:10:15.907Z,77.71
2022-12-08T21:12:42.143Z,77.87
2022-12-08T21:15:10.797Z,77.79
2022-12-08T21:17:36.937Z,77.72
2022-12-08T21:20:03.872Z,77.57
2022-12-08T21:22:30.324Z,77.60
2022-12-08T21:24:56.357Z,77.59
2022-12-08T21:27:22.513Z,77.52
2022-12-08T21:29:48.587Z,77.44
2022-12-08T21:32:14.624Z,77.23
2022-12-08T21:34:43.653Z,77.24
2022-12-08T21:37:17.088Z,77.27
2022-12-08T21:45:16.228Z,77.41
2022-12-08T21:47:43.289Z,77.71
2022-12-08T21:50:11.145Z,77.54
2022-12-08T21:52:43.030Z,77.62
2022-12-08T21:55:10.426Z,77.95
2022-12-08T21:57:36.507Z,77.75
2022-12-08T22:00:03.463Z,78.06
2022-12-08T22:02:30.576Z,78.29
2022-12-08T22:04:56.920Z,78.22
2022-12-08T22:07:23.124Z,78.11
2022-12-08T22:09:49.239Z,78.21
2022-12-08T22:12:16.158Z,78.28
2022-12-08T22:14:43.164Z,78.52
2022-12-08T22:17:09.590Z,78.40
2022-12-08T22:19:35.872Z,78.49
2022-12-08T22:22:02.267Z,78.53
2022-12-08T22:24:31.291Z,78.57
2022-12-08T22:26:57.545Z,78.65
2022-12-08T22:29:23.444Z,78.60
2022-12-08T22:31:49.838Z,78.50
2022-12-08T22:34:15.927Z,78.62
2022-12-08T22:36:42.189Z,78.66
2022-12-08T22:39:09.207Z,78.76
2022-12-08T22:41:35.279Z,78.88
2022-12-08T22:44:04.972Z,78.67
2022-12-08T22:46:30.995Z,78.89
2022-12-08T22:48:57.415Z,79.07
2022-12-08T22:51:23.478Z,78.74
2022-12-08T22:53:50.145Z,79.04
2022-12-08T22:56:17.064Z,79.03
2022-12-08T22:58:43.909Z,78.93
2022-12-08T23:01:42.514Z,79.14
2022-12-08T23:04:46.606Z,79.27
2022-12-08T23:07:25.551Z,78.96
2022-12-08T23:14:23.284Z,79.26
2022-12-08T23:21:27.612Z,79.84
2022-12-08T23:24:36.218Z,80.47
2022-12-08T23:33:47.845Z,80.33
2022-12-08T23:36:15.138Z,80.19
2022-12-08T23:38:42.268Z,80.42
2022-12-08T23:41:12.351Z,80.82
2022-12-08T23:43:43.722Z,80.88
2022-12-08T23:46:09.969Z,80.80
2022-12-08T23:48:36.143Z,80.72
2022-12-08T23:51:02.620Z,80.94
2022-12-08T23:53:29.859Z,81.02
2022-12-08T23:56:06.816Z,81.01
2022-12-08T23:58:34.031Z,81.22
